Time;durP1;ratioP1;P1;durP2;ratioP2;P2;SDS_P1;SDS_P2;PMS_P1;PMS_P2;Temp;Humidity;BMP_temperature;BMP_pressure;BME280_temperature;BME280_humidity;BME280_pressure;Samples;Min_cycle;Max_cycle;Signal;HPM_P1;HPM_P2
2021/12/20 15:36:53;;;;;;;14.60;3.60;;;;;;;-0.05;86.22;98881.63;2238528;79;23415;-67
2021/12/20 15:39:53;;;;;;;15.68;3.90;;;;;;;-0.16;87.03;98904.16;2189100;81;21017;-67
2021/12/20 15:45:58;;;;;;;7.47;2.15;;;;;;;-0.35;88.56;98940.98;2131293;83;21071;-67
2021/12/20 15:49:00;;;;;;;6.10;1.60;;;;;;;-0.76;87.45;98946.27;2147743;83;21038;-67
2021/12/20 15:52:00;;;;;;;6.20;1.67;;;;;;;-1.09;87.65;98953.56;2131374;83;20945;-66
2021/12/20 15:55:02;;;;;;;7.53;1.77;;;;;;;-1.27;89.26;98943.03;2147105;83;21035;-67
2021/12/20 15:58:04;;;;;;;8.58;1.60;;;;;;;-1.42;90.33;98953.06;2119003;83;20976;-67
2021/12/20 16:01:04;;;;;;;7.97;2.25;;;;;;;-1.57;91.68;98944.64;2147699;83;21051;-67
2021/12/20 16:04:05;;;;;;;4.33;1.70;;;;;;;-1.68;92.63;98955.88;2147600;83;20963;-67
2021/12/20 16:07:05;;;;;;;7.87;2.30;;;;;;;-1.75;94.49;98939.66;2147594;83;21474;-67
2021/12/20 16:10:06;;;;;;;5.65;1.37;;;;;;;-1.80;92.68;98946.11;2147562;83;21003;-67
2021/12/20 16:13:06;;;;;;;4.85;1.77;;;;;;;-1.82;90.99;98971.45;2147520;83;21035;-67
2021/12/20 16:16:07;;;;;;;7.67;1.87;;;;;;;-1.80;90.47;98982.12;2147793;83;20983;-66
2021/12/20 16:33:12;;;;;;;7.62;1.80;;;;;;;-1.42;88.23;99006.66;2319916;76;22811;-66
2021/12/20 16:36:13;;;;;;;7.33;1.62;;;;;;;-1.72;90.11;99025.80;2316343;77;21452;-65
2021/12/20 16:39:13;;;;;;;9.65;1.90;;;;;;;-1.88;91.57;99021.20;2316551;77;20954;-67
2021/12/20 16:54:53;;;;;;;9.20;2.40;;;;;;;-1.59;86.83;99035.11;2241471;79;22277;-67
2021/12/20 16:57:53;;;;;;;7.85;2.05;;;;;;;-1.75;86.79;99036.11;2173173;81;21008;-63
2021/12/20 17:00:54;;;;;;;10.13;2.67;;;;;;;-1.86;86.79;99039.19;2191881;81;21035;-66
2021/12/20 17:06:56;;;;;;;9.13;2.30;;;;;;;-2.03;85.18;99073.56;2173412;81;21046;-66
2021/12/20 17:09:57;;;;;;;10.08;2.30;;;;;;;-2.09;86.50;99060.76;2191945;80;20980;-63
2021/12/20 17:12:57;;;;;;;9.93;2.55;;;;;;;-2.13;86.77;99066.33;2191927;80;20970;-67
2021/12/20 17:28:12;;;;;;;12.85;3.05;;;;;;;-1.68;84.72;99068.63;2291033;77;22866;-67
2021/12/20 17:31:12;;;;;;;13.58;3.02;;;;;;;-1.81;84.76;99075.99;2237018;79;21008;-67
2021/12/20 17:34:13;;;;;;;15.72;3.27;;;;;;;-1.98;84.34;99080.83;2236775;79;21033;-67
2021/12/20 17:37:14;;;;;;;12.23;3.17;;;;;;;-2.16;83.96;99080.48;2236894;79;20972;-68
2021/12/20 17:40:14;;;;;;;13.90;3.08;;;;;;;-2.29;83.68;99103.27;2236931;79;21478;-67
2021/12/20 17:43:17;;;;;;;14.40;3.27;;;;;;;-2.39;83.98;99092.61;2236900;79;20968;-67
2021/12/20 17:46:19;;;;;;;12.75;3.00;;;;;;;-2.49;84.11;99091.34;2219061;80;20975;-66
2021/12/20 17:49:20;;;;;;;14.45;3.45;;;;;;;-2.59;83.32;99098.66;2236437;80;21045;-67
2021/12/20 17:52:21;;;;;;;14.90;3.10;;;;;;;-2.70;83.49;99108.11;2237043;79;20988;-66
2021/12/20 17:55:21;;;;;;;13.55;3.27;;;;;;;-2.79;83.92;99098.31;2236608;80;20992;-67
2021/12/20 17:58:21;;;;;;;16.17;3.45;;;;;;;-2.89;84.69;99107.31;2236787;79;21012;-67
2021/12/20 18:01:22;;;;;;;12.40;3.27;;;;;;;-2.95;84.57;99108.17;2236640;79;21534;-67
2021/12/20 18:04:23;;;;;;;13.30;3.50;;;;;;;-2.99;83.65;99121.46;2236654;79;21024;-67
2021/12/20 18:07:24;;;;;;;16.52;3.50;;;;;;;-3.03;84.09;99126.58;2236748;79;21040;-67
2021/12/20 18:10:25;;;;;;;15.03;3.60;;;;;;;-3.03;84.28;99124.89;2236632;79;21064;-65
2021/12/20 18:13:25;;;;;;;13.85;3.25;;;;;;;-3.08;84.09;99124.02;2236749;80;20941;-67
2021/12/20 18:16:26;;;;;;;16.15;3.47;;;;;;;-3.15;84.29;99130.02;2236548;79;20957;-65
2021/12/20 18:19:26;;;;;;;13.13;3.20;;;;;;;-3.26;84.34;99140.70;2236582;80;20971;-67
2021/12/20 18:22:27;;;;;;;17.35;3.62;;;;;;;-3.31;84.72;99148.41;2236619;79;21126;-67
2021/12/20 18:25:28;;;;;;;18.62;3.87;;;;;;;-3.39;84.77;99149.70;2236733;79;21016;-65
2021/12/20 18:28:30;;;;;;;19.45;4.45;;;;;;;-3.51;84.15;99155.66;2235813;80;21004;-66
2021/12/20 18:31:30;;;;;;;16.42;3.12;;;;;;;-3.54;83.85;99158.66;2175115;82;20984;-67
2021/12/20 18:34:31;;;;;;;17.55;3.72;;;;;;;-3.58;83.70;99169.76;2175395;82;21012;-67
2021/12/20 18:37:31;;;;;;;17.07;3.42;;;;;;;-3.58;84.69;99171.04;2175055;82;21549;-67
2021/12/20 18:40:31;;;;;;;14.70;3.12;;;;;;;-3.58;83.75;99174.89;2175364;82;20969;-67
2021/12/20 18:43:32;;;;;;;12.93;3.05;;;;;;;-3.58;83.55;99184.70;2175141;81;21019;-67
2021/12/20 18:46:32;;;;;;;17.30;3.77;;;;;;;-3.63;83.63;99190.27;2175202;82;20953;-65
2021/12/20 18:49:33;;;;;;;17.60;3.50;;;;;;;-3.64;82.47;99197.97;2175104;81;21024;-67
2021/12/20 18:52:33;;;;;;;14.28;3.02;;;;;;;-3.70;81.68;99205.21;2175342;81;20992;-66
2021/12/20 18:55:34;;;;;;;17.70;3.50;;;;;;;-3.72;82.08;99209.46;2175159;82;21024;-67
2021/12/20 18:58:34;;;;;;;21.70;4.17;;;;;;;-3.74;82.04;99209.46;2175243;81;21004;-67
2021/12/20 19:01:35;;;;;;;23.07;4.90;;;;;;;-3.79;81.50;99201.32;2175219;82;21510;-65
2021/12/20 19:04:36;;;;;;;25.70;5.25;;;;;;;-3.81;81.83;99206.45;2175212;81;20947;-66
2021/12/20 19:07:37;;;;;;;24.17;4.47;;;;;;;-3.83;81.56;99203.04;2175499;81;21509;-67
2021/12/20 19:10:42;;;;;;;24.20;5.05;;;;;;;-3.87;81.82;99202.59;2175321;82;20945;-66
2021/12/20 19:16:42;;;;;;;22.13;5.05;;;;;;;-3.94;82.22;99202.98;2146217;82;21032;-67
2021/12/20 19:19:43;;;;;;;22.17;5.25;;;;;;;-4.02;82.55;99211.94;2175213;82;20984;-67
2021/12/20 19:22:43;;;;;;;22.20;4.80;;;;;;;-4.09;82.45;99214.05;2175226;81;21459;-67
2021/12/20 19:25:45;;;;;;;24.50;5.53;;;;;;;-4.10;82.64;99219.16;2175007;81;20973;-67
2021/12/20 19:28:46;;;;;;;19.62;4.87;;;;;;;-4.13;82.50;99219.16;2175538;82;21029;-67
2021/12/20 19:31:47;;;;;;;22.07;4.87;;;;;;;-4.14;83.01;99232.80;2175294;81;20976;-67
2021/12/20 19:34:47;;;;;;;19.90;4.47;;;;;;;-4.23;82.85;99228.06;2175101;81;20983;-67
2021/12/20 19:37:48;;;;;;;21.15;4.78;;;;;;;-4.23;82.83;99238.30;2175187;82;20949;-68
2021/12/20 19:40:49;;;;;;;17.73;4.42;;;;;;;-4.26;82.54;99247.70;2174662;81;21063;-67
2021/12/20 19:43:49;;;;;;;21.17;4.90;;;;;;;-4.35;82.36;99235.26;2175307;81;20988;-66
2021/12/20 19:46:52;;;;;;;17.80;4.20;;;;;;;-4.40;82.61;99245.05;2175043;81;21020;-64
2021/12/20 19:49:52;;;;;;;18.05;4.55;;;;;;;-4.48;82.44;99241.57;2146278;82;21086;-67
2021/12/20 19:52:52;;;;;;;20.77;4.75;;;;;;;-4.57;82.41;99245.80;2175156;81;20985;-66
2021/12/20 19:55:53;;;;;;;23.85;5.80;;;;;;;-4.73;82.14;99250.37;2175190;82;20969;-66
2021/12/20 19:58:54;;;;;;;23.45;5.35;;;;;;;-4.89;82.32;99255.35;2175166;82;20980;-64
2021/12/20 20:01:56;;;;;;;19.00;4.53;;;;;;;-5.01;83.15;99258.23;2175167;82;21024;-67
2021/12/20 20:04:56;;;;;;;19.27;4.55;;;;;;;-5.12;83.50;99252.60;2146352;82;20988;-65
2021/12/20 20:07:57;;;;;;;19.90;4.72;;;;;;;-5.14;83.99;99253.42;2175022;82;20960;-65
2021/12/20 20:10:57;;;;;;;22.77;5.20;;;;;;;-5.19;84.18;99248.70;2175085;81;21067;-67
2021/12/20 20:13:58;;;;;;;23.80;5.17;;;;;;;-5.25;84.70;99254.63;2175143;82;20976;-66
2021/12/20 20:17:00;;;;;;;23.83;5.12;;;;;;;-5.24;85.23;99253.35;2174873;82;20985;-65
2021/12/20 20:20:00;;;;;;;23.07;5.60;;;;;;;-5.17;85.31;99255.95;2175140;82;21463;-67
2021/12/20 20:23:01;;;;;;;20.72;5.17;;;;;;;-5.14;85.29;99248.31;2175023;81;20996;-67
2021/12/20 20:26:01;;;;;;;24.15;6.03;;;;;;;-5.17;85.09;99254.68;2175056;81;20985;-67
2021/12/20 20:29:02;;;;;;;21.60;5.50;;;;;;;-5.23;84.58;99265.31;2174977;82;20981;-67
2021/12/20 20:32:02;;;;;;;22.27;5.30;;;;;;;-5.27;84.82;99266.55;2175130;81;20988;-65
2021/12/20 20:35:04;;;;;;;22.32;5.45;;;;;;;-5.22;85.41;99275.11;2174929;81;21526;-65
2021/12/20 20:38:05;;;;;;;23.85;5.78;;;;;;;-5.16;85.63;99267.48;2175073;81;21110;-66
2021/12/20 20:41:05;;;;;;;24.07;6.25;;;;;;;-5.10;85.90;99276.52;2175128;81;20968;-66
2021/12/20 20:44:06;;;;;;;23.45;6.25;;;;;;;-5.01;86.24;99279.98;2174951;82;21522;-64
2021/12/20 20:47:06;;;;;;;24.72;6.62;;;;;;;-4.93;86.41;99276.67;2175213;81;21023;-66
2021/12/20 20:50:07;;;;;;;25.70;6.75;;;;;;;-4.82;86.35;99279.73;2174606;82;21021;-67
2021/12/20 20:53:07;;;;;;;24.30;7.10;;;;;;;-4.77;86.29;99278.94;2175115;81;21535;-66
2021/12/20 20:56:10;;;;;;;23.05;6.83;;;;;;;-4.72;86.22;99284.93;2175040;81;21000;-66
2021/12/20 20:59:10;;;;;;;24.70;6.50;;;;;;;-4.65;86.16;99283.72;2146177;82;21048;-67
2021/12/20 21:02:10;;;;;;;25.12;6.75;;;;;;;-4.63;86.23;99282.86;2175004;81;21028;-65
2021/12/20 21:05:11;;;;;;;22.52;5.90;;;;;;;-4.61;86.34;99276.47;2175034;81;21104;-67
2021/12/20 21:08:11;;;;;;;24.60;6.70;;;;;;;-4.60;85.84;99281.60;2175253;81;20984;-67
2021/12/20 21:11:12;;;;;;;25.43;7.03;;;;;;;-4.54;85.57;99284.23;2175118;81;20972;-67
2021/12/20 21:14:13;;;;;;;26.62;6.62;;;;;;;-4.54;85.47;99280.80;2174978;81;20993;-67
2021/12/20 21:17:13;;;;;;;24.77;6.12;;;;;;;-4.56;85.57;99283.34;2174900;81;21012;-66
2021/12/20 21:20:14;;;;;;;25.00;6.83;;;;;;;-4.56;85.67;99283.34;2174782;82;21012;-67
2021/12/20 21:23:15;;;;;;;22.25;6.40;;;;;;;-4.53;85.80;99284.64;2175234;81;21023;-66
2021/12/20 21:26:15;;;;;;;23.57;6.63;;;;;;;-4.53;85.89;99283.36;2174884;81;20992;-66
2021/12/20 21:29:15;;;;;;;26.00;7.33;;;;;;;-4.48;86.15;99288.94;2175197;82;21052;-65
2021/12/20 21:32:16;;;;;;;28.00;8.03;;;;;;;-4.47;86.19;99289.38;2174664;82;21507;-66
2021/12/20 21:35:16;;;;;;;29.30;9.30;;;;;;;-4.42;86.24;99289.01;2174897;82;20992;-67
2021/12/20 21:38:17;;;;;;;29.82;9.25;;;;;;;-4.42;86.52;99287.73;2174941;81;20992;-65
2021/12/20 21:41:17;;;;;;;32.53;9.60;;;;;;;-4.41;86.77;99286.86;2175159;81;20992;-67
2021/12/20 21:44:18;;;;;;;30.72;10.55;;;;;;;-4.40;86.92;99283.45;2175013;82;20988;-66
2021/12/20 21:47:18;;;;;;;32.17;9.88;;;;;;;-4.42;86.87;99282.17;2185453;81;20960;-67
2021/12/20 21:50:18;;;;;;;32.42;10.20;;;;;;;-4.49;86.90;99298.77;2168271;82;20977;-67
2021/12/20 21:53:19;;;;;;;32.20;10.63;;;;;;;-4.54;87.54;99294.47;2185212;81;20936;-67
2021/12/20 21:56:21;;;;;;;35.33;10.55;;;;;;;-4.57;87.97;99297.02;2168082;82;21476;-67
2021/12/20 21:59:22;;;;;;;29.32;9.25;;;;;;;-4.59;88.53;99302.96;2185055;81;21042;-67
2021/12/20 22:02:23;;;;;;;31.68;9.45;;;;;;;-4.60;89.06;99308.48;2168480;82;21041;-67
2021/12/20 22:05:23;;;;;;;28.02;7.67;;;;;;;-4.57;89.44;99313.66;2168316;82;21536;-67
2021/12/20 22:08:24;;;;;;;28.77;7.87;;;;;;;-4.54;89.69;99316.23;2168363;82;21049;-66
2021/12/20 22:11:24;;;;;;;27.13;8.05;;;;;;;-4.56;89.93;99321.75;2182178;81;20973;-67
2021/12/20 22:14:26;;;;;;;26.33;7.28;;;;;;;-4.59;89.59;99317.89;2182285;81;21020;-66
2021/12/20 22:17:27;;;;;;;26.15;7.45;;;;;;;-4.63;89.97;99326.39;2154975;82;21043;-66
2021/12/20 22:20:27;;;;;;;26.33;7.20;;;;;;;-4.65;90.03;99327.24;2182301;81;21068;-67
2021/12/20 22:23:28;;;;;;;24.72;6.20;;;;;;;-4.66;90.16;99327.64;2182527;81;21015;-67
2021/12/20 22:26:28;;;;;;;24.32;6.08;;;;;;;-4.74;89.82;99329.27;2181821;81;21040;-67
2021/12/20 22:29:29;;;;;;;26.35;6.55;;;;;;;-4.76;91.22;99327.14;2181785;81;21571;-67
2021/12/20 22:32:29;;;;;;;23.87;6.10;;;;;;;-4.71;91.71;99325.05;2182195;81;20999;-67
2021/12/20 22:35:29;;;;;;;24.18;6.00;;;;;;;-4.64;91.62;99331.09;2181981;82;20977;-67
2021/12/20 22:38:30;;;;;;;25.70;6.53;;;;;;;-4.61;91.55;99336.23;2182165;81;21024;-66
2021/12/20 22:41:30;;;;;;;21.90;5.62;;;;;;;-4.60;90.76;99334.52;2182180;81;20980;-66
2021/12/20 22:44:31;;;;;;;21.93;5.67;;;;;;;-4.64;90.78;99329.81;2182123;81;20976;-66
2021/12/20 22:47:31;;;;;;;19.23;4.83;;;;;;;-4.67;91.43;99332.75;2181999;81;21460;-67
2021/12/20 22:50:32;;;;;;;20.40;5.60;;;;;;;-4.69;91.20;99331.46;2181996;82;21028;-67
2021/12/20 22:53:32;;;;;;;20.77;5.50;;;;;;;-4.73;91.26;99332.28;2181866;81;20996;-67
2021/12/20 22:56:32;;;;;;;18.90;4.92;;;;;;;-4.79;90.90;99327.95;2182220;81;21024;-66
2021/12/20 22:59:33;;;;;;;19.32;4.72;;;;;;;-4.80;91.23;99329.23;2182026;82;20985;-67
2021/12/20 23:02:33;;;;;;;19.25;5.10;;;;;;;-4.79;92.28;99337.35;2182178;81;21052;-66
2021/12/20 23:05:34;;;;;;;21.48;5.47;;;;;;;-4.72;92.45;99339.97;2182067;82;21565;-67
2021/12/20 23:08:35;;;;;;;21.57;5.60;;;;;;;-4.73;91.75;99339.52;2182149;82;21015;-63
2021/12/20 23:11:35;;;;;;;21.42;5.40;;;;;;;-4.71;92.30;99344.25;2182239;81;21047;-67
2021/12/20 23:14:36;;;;;;;18.87;4.83;;;;;;;-4.66;92.84;99342.16;2182085;81;21032;-66
2021/12/20 23:17:36;;;;;;;20.12;5.22;;;;;;;-4.60;92.80;99344.77;2182080;81;21586;-67
2021/12/20 23:20:37;;;;;;;21.70;4.87;;;;;;;-4.61;92.17;99350.72;2181622;82;21084;-66
2021/12/20 23:23:38;;;;;;;19.60;5.45;;;;;;;-4.62;92.51;99342.19;2182008;81;21060;-67
2021/12/20 23:26:38;;;;;;;20.80;4.95;;;;;;;-4.52;93.19;99345.69;2182222;81;20972;-67
2021/12/20 23:29:38;;;;;;;22.77;4.97;;;;;;;-4.47;92.97;99355.53;2181767;81;21096;-66
2021/12/20 23:32:39;;;;;;;20.65;5.42;;;;;;;-4.41;93.28;99350.89;2182003;82;21024;-66
2021/12/20 23:35:39;;;;;;;20.75;5.67;;;;;;;-4.33;93.38;99345.84;2182074;81;21629;-66
2021/12/20 23:38:43;;;;;;;17.90;4.95;;;;;;;-4.27;93.48;99349.28;2182126;81;21016;-67
2021/12/20 23:41:44;;;;;;;19.30;4.53;;;;;;;-4.22;93.17;99357.03;2154906;82;21000;-66
2021/12/20 23:44:44;;;;;;;20.75;4.97;;;;;;;-4.18;93.07;99350.65;2182218;81;21011;-66
2021/12/20 23:47:45;;;;;;;20.43;5.08;;;;;;;-4.16;92.75;99345.53;2182008;81;21024;-66
2021/12/20 23:50:45;;;;;;;22.42;5.42;;;;;;;-4.15;92.24;99344.69;2182002;81;21107;-66
2021/12/20 23:53:47;;;;;;;20.17;5.37;;;;;;;-4.19;91.83;99346.36;2182213;81;20996;-67
2021/12/20 23:56:48;;;;;;;16.85;4.55;;;;;;;-4.23;91.88;99345.05;2182144;81;20992;-67
2021/12/20 23:59:48;;;;;;;19.90;4.58;;;;;;;-4.25;92.55;99333.52;2182082;81;21467;-67
